Time;durP1;ratioP1;P1;durP2;ratioP2;P2;SDS_P1;SDS_P2;PMS_P1;PMS_P2;Temp;Humidity;BMP_temperature;BMP_pressure;BME280_temperature;BME280_humidity;BME280_pressure;Samples;Min_cycle;Max_cycle;Signal;HPM_P1;HPM_P2
2021/12/27 00:01:56;;;;;;;3.38;1.58;;;-3.00;99.90;;;;;;5070728;28;20679;-83
2021/12/27 00:04:23;;;;;;;0.30;0.10;;;-3.00;99.90;;;;;;5056260;28;20216;-83
2021/12/27 00:06:50;;;;;;;0.30;0.10;;;-3.00;99.90;;;;;;5063676;28;20247;-82
2021/12/27 00:09:17;;;;;;;0.30;0.10;;;-3.00;99.90;;;;;;5070583;28;20194;-83
2021/12/27 00:11:44;;;;;;;0.30;0.10;;;-3.10;99.90;;;;;;5069710;28;20239;-83
2021/12/27 00:14:12;;;;;;;0.35;0.25;;;-3.00;99.90;;;;;;5069203;28;20282;-83
2021/12/27 00:16:39;;;;;;;0.30;0.10;;;-3.00;99.90;;;;;;5071103;28;20205;-83
2021/12/27 00:19:06;;;;;;;0.30;0.10;;;-3.00;99.90;;;;;;5070729;28;20688;-83
2021/12/27 00:21:33;;;;;;;0.30;0.10;;;-3.00;99.90;;;;;;5069109;28;20194;-83
2021/12/27 00:24:00;;;;;;;0.40;0.40;;;-3.00;99.90;;;;;;5070167;28;20211;-83
2021/12/27 00:26:27;;;;;;;0.30;0.10;;;-3.10;99.90;;;;;;5070800;28;20197;-83
2021/12/27 00:28:54;;;;;;;0.30;0.10;;;-3.00;99.90;;;;;;5070987;28;20201;-83
2021/12/27 00:31:22;;;;;;;0.30;0.10;;;-3.10;99.90;;;;;;5091350;28;20197;-83
2021/12/27 00:33:49;;;;;;;1.67;0.63;;;-3.10;99.90;;;;;;5079638;28;20210;-83
2021/12/27 00:36:16;;;;;;;0.30;0.20;;;-3.10;99.90;;;;;;5070283;28;20247;-83
2021/12/27 00:38:43;;;;;;;0.30;0.10;;;-3.10;99.90;;;;;;5071109;28;20625;-83
2021/12/27 00:41:10;;;;;;;0.30;0.20;;;-3.10;99.90;;;;;;5069116;28;20907;-83
2021/12/27 00:43:37;;;;;;;0.30;0.10;;;-3.10;99.90;;;;;;5069558;28;20525;-83
2021/12/27 00:46:04;;;;;;;0.30;0.10;;;-3.10;99.90;;;;;;5069831;28;20205;-83
2021/12/27 00:48:32;;;;;;;0.30;0.10;;;-3.10;99.90;;;;;;5070318;28;20202;-83
2021/12/27 00:50:59;;;;;;;0.63;0.63;;;-3.10;99.90;;;;;;5069164;28;20205;-83
2021/12/27 00:53:26;;;;;;;0.30;0.10;;;-3.10;99.90;;;;;;5070076;28;20201;-83
2021/12/27 00:55:53;;;;;;;0.40;0.20;;;-3.10;99.90;;;;;;5070298;28;20194;-84
2021/12/27 00:58:20;;;;;;;0.45;0.38;;;-3.20;99.90;;;;;;5079888;28;20431;-83
2021/12/27 01:00:47;;;;;;;0.30;0.10;;;-3.20;99.90;;;;;;5088681;28;20201;-83
2021/12/27 01:03:15;;;;;;;0.30;0.20;;;-3.30;99.90;;;;;;5085371;28;20223;-83
2021/12/27 01:05:44;;;;;;;0.30;0.10;;;-3.30;99.90;;;;;;5074076;28;20198;-83
2021/12/27 01:08:11;;;;;;;0.30;0.10;;;-3.30;99.90;;;;;;5051228;28;20244;-84
2021/12/27 01:13:23;;;;;;;0.30;0.10;;;-3.40;99.90;;;;;;5050147;28;20200;-83
2021/12/27 01:16:10;;;;;;;0.50;0.50;;;-3.50;99.90;;;;;;5067337;28;20204;-83
2021/12/27 01:18:38;;;;;;;0.30;0.10;;;-3.50;99.90;;;;;;5070610;28;20275;-84
2021/12/27 01:21:06;;;;;;;4.35;1.23;;;-3.50;99.90;;;;;;5069555;28;20206;-83
2021/12/27 01:23:36;;;;;;;0.30;0.10;;;-3.50;99.90;;;;;;5069104;28;20234;-84
2021/12/27 01:26:04;;;;;;;0.30;0.20;;;-3.50;99.90;;;;;;5070227;28;20194;-84
2021/12/27 01:28:31;;;;;;;2.83;2.70;;;-3.50;99.90;;;;;;5069531;28;20201;-84
2021/12/27 01:30:58;;;;;;;0.30;0.15;;;-3.50;99.90;;;;;;5068324;28;20197;-83
2021/12/27 01:33:25;;;;;;;0.30;0.10;;;-3.50;99.90;;;;;;5069727;28;20239;-83
2021/12/27 01:35:53;;;;;;;1.25;1.23;;;-3.50;99.90;;;;;;5069107;28;20778;-84
2021/12/27 01:38:22;;;;;;;0.30;0.10;;;-3.40;99.90;;;;;;5069447;28;20260;-84
2021/12/27 01:40:52;;;;;;;0.30;0.10;;;-3.40;99.90;;;;;;5068937;28;20197;-84
2021/12/27 01:43:21;;;;;;;0.30;0.10;;;-3.30;99.90;;;;;;5069809;28;20194;-83
2021/12/27 01:45:51;;;;;;;0.30;0.10;;;-3.20;99.90;;;;;;5068368;28;20281;-83
2021/12/27 01:48:21;;;;;;;0.30;0.20;;;-3.20;99.90;;;;;;5069067;28;20202;-84
2021/12/27 01:50:50;;;;;;;0.30;0.10;;;-3.20;99.90;;;;;;5069101;28;20209;-84
2021/12/27 01:53:18;;;;;;;0.30;0.10;;;-3.10;99.90;;;;;;5068805;28;20206;-84
2021/12/27 01:55:46;;;;;;;0.30;0.22;;;-3.20;99.90;;;;;;5069588;28;20695;-84
2021/12/27 01:58:14;;;;;;;0.30;0.15;;;-3.20;99.90;;;;;;5069670;28;20278;-84
2021/12/27 02:00:44;;;;;;;0.30;0.10;;;-3.10;99.90;;;;;;5062203;28;20202;-84
2021/12/27 02:03:11;;;;;;;0.30;0.10;;;-3.10;99.90;;;;;;5064975;28;20229;-84
2021/12/27 02:05:38;;;;;;;0.30;0.10;;;-3.10;99.90;;;;;;5056600;28;20197;-83
2021/12/27 02:08:05;;;;;;;0.30;0.10;;;-3.10;99.90;;;;;;5069191;28;20193;-84
2021/12/27 02:10:33;;;;;;;0.30;0.10;;;-3.10;99.90;;;;;;5070244;28;20194;-83
2021/12/27 02:13:02;;;;;;;0.30;0.10;;;-3.10;99.90;;;;;;5073596;28;20303;-84
2021/12/27 02:15:29;;;;;;;0.30;0.10;;;-3.10;99.90;;;;;;5071257;28;20221;-83
2021/12/27 02:17:56;;;;;;;0.30;0.10;;;-3.00;99.90;;;;;;5072988;28;20262;-84
2021/12/27 02:20:26;;;;;;;0.30;0.10;;;-3.00;99.90;;;;;;5073262;28;20702;-83
2021/12/27 02:22:59;;;;;;;0.30;0.10;;;-3.10;99.90;;;;;;5072440;28;20645;-83
2021/12/27 02:25:27;;;;;;;0.40;0.25;;;-3.10;99.90;;;;;;5071780;28;20676;-83
2021/12/27 02:27:54;;;;;;;0.85;0.63;;;-3.10;99.90;;;;;;5072523;28;20648;-83
2021/12/27 02:30:23;;;;;;;0.30;0.10;;;-3.10;99.90;;;;;;5073050;28;20596;-82
2021/12/27 02:32:52;;;;;;;0.30;0.10;;;-3.20;99.90;;;;;;5072194;28;20216;-83
2021/12/27 02:35:21;;;;;;;0.30;0.20;;;-3.20;99.90;;;;;;5078923;28;20221;-83
2021/12/27 02:37:49;;;;;;;0.43;0.43;;;-3.30;99.90;;;;;;5087489;28;20237;-83
2021/12/27 02:40:17;;;;;;;0.30;0.20;;;-3.30;99.90;;;;;;5091228;28;20220;-82
2021/12/27 02:42:58;;;;;;;0.30;0.10;;;-3.30;99.90;;;;;;5091997;28;20209;-83
2021/12/27 02:45:27;;;;;;;0.30;0.10;;;-3.40;99.90;;;;;;5076378;28;20701;-84
2021/12/27 02:47:55;;;;;;;0.30;0.10;;;-3.40;99.90;;;;;;5073182;28;20741;-83
2021/12/27 02:50:23;;;;;;;0.30;0.10;;;-3.50;99.90;;;;;;5061494;28;20562;-83
2021/12/27 02:52:52;;;;;;;0.30;0.10;;;-3.50;99.90;;;;;;5055834;28;20418;-84
2021/12/27 02:55:19;;;;;;;0.30;0.10;;;-3.50;99.90;;;;;;5072519;28;20221;-83
2021/12/27 02:57:48;;;;;;;1.42;0.80;;;-3.50;99.90;;;;;;5072458;28;20259;-84
2021/12/27 03:00:17;;;;;;;0.30;0.10;;;-3.50;99.90;;;;;;5071890;28;20266;-84
2021/12/27 03:02:46;;;;;;;0.30;0.10;;;-3.40;99.90;;;;;;5071338;28;20591;-83
2021/12/27 03:05:16;;;;;;;0.30;0.20;;;-3.40;99.90;;;;;;5072114;28;20722;-84
2021/12/27 03:07:45;;;;;;;0.30;0.10;;;-3.30;99.90;;;;;;5071790;28;20292;-83
2021/12/27 03:10:14;;;;;;;0.30;0.10;;;-3.30;99.90;;;;;;5070595;28;20197;-83
2021/12/27 03:12:43;;;;;;;0.30;0.10;;;-3.30;99.90;;;;;;5072896;28;20283;-83
2021/12/27 03:15:12;;;;;;;0.30;0.10;;;-3.30;99.90;;;;;;5070787;28;20574;-83
2021/12/27 03:17:41;;;;;;;0.30;0.20;;;-3.30;99.90;;;;;;5071563;28;20193;-83
2021/12/27 03:20:10;;;;;;;0.30;0.10;;;-3.30;99.90;;;;;;5071901;28;20641;-83
2021/12/27 03:22:38;;;;;;;0.30;0.10;;;-3.20;99.90;;;;;;5071585;28;20713;-84
2021/12/27 03:25:08;;;;;;;0.30;0.10;;;-3.20;99.90;;;;;;5071722;28;20197;-83
2021/12/27 03:27:36;;;;;;;0.88;0.88;;;-3.20;99.90;;;;;;5070585;28;20417;-83
2021/12/27 03:30:05;;;;;;;4.20;2.28;;;-3.20;99.90;;;;;;5071188;28;20600;-83
2021/12/27 03:32:33;;;;;;;0.30;0.15;;;-3.10;99.90;;;;;;5071682;28;20202;-83
2021/12/27 03:35:08;;;;;;;0.30;0.15;;;-3.10;99.90;;;;;;5071395;28;20233;-82
2021/12/27 03:37:36;;;;;;;0.30;0.10;;;-3.10;99.90;;;;;;5070405;28;20237;-85
2021/12/27 03:40:04;;;;;;;0.30;0.10;;;-3.10;99.90;;;;;;5071377;28;20197;-84
2021/12/27 03:42:31;;;;;;;0.30;0.10;;;-3.10;99.90;;;;;;5071587;28;20711;-83
2021/12/27 03:45:00;;;;;;;0.30;0.10;;;-3.10;99.90;;;;;;5071307;28;20201;-83
2021/12/27 03:47:27;;;;;;;0.30;0.10;;;-3.10;99.90;;;;;;5068860;28;20201;-83
2021/12/27 03:49:54;;;;;;;0.30;0.10;;;-3.10;99.90;;;;;;5071590;28;20202;-83
2021/12/27 03:52:21;;;;;;;0.30;0.10;;;-3.10;99.90;;;;;;5070448;28;20279;-83
2021/12/27 03:54:48;;;;;;;0.30;0.10;;;-3.00;99.90;;;;;;5071073;28;20221;-83
2021/12/27 03:57:16;;;;;;;0.50;0.50;;;-3.00;99.90;;;;;;5070180;28;20201;-83
2021/12/27 03:59:54;;;;;;;0.30;0.10;;;-3.00;99.90;;;;;;5071547;28;20193;-83
2021/12/27 04:02:22;;;;;;;0.30;0.20;;;-3.00;99.90;;;;;;5069807;28;20205;-84
2021/12/27 04:04:49;;;;;;;0.30;0.10;;;-3.00;99.90;;;;;;5072036;28;20229;-84
2021/12/27 04:07:18;;;;;;;0.30;0.30;;;-3.00;99.90;;;;;;5071848;28;20725;-83
2021/12/27 04:09:45;;;;;;;0.30;0.10;;;-3.00;99.90;;;;;;5070726;28;20278;-83
2021/12/27 04:12:12;;;;;;;0.55;0.55;;;-3.00;99.90;;;;;;5069970;28;20194;-84
2021/12/27 04:14:39;;;;;;;0.30;0.10;;;-3.00;99.90;;;;;;5097274;28;20216;-83
2021/12/27 04:17:06;;;;;;;0.30;0.10;;;-3.00;99.90;;;;;;5094004;28;20219;-83
2021/12/27 04:19:34;;;;;;;4.20;1.85;;;-3.10;99.90;;;;;;5087640;28;20206;-83
2021/12/27 04:22:01;;;;;;;0.80;0.68;;;-3.00;99.90;;;;;;5080030;28;20258;-83
2021/12/27 04:24:28;;;;;;;1.05;0.95;;;-3.10;99.90;;;;;;5064663;28;20585;-83
2021/12/27 04:26:55;;;;;;;0.30;0.10;;;-3.10;99.90;;;;;;5064334;28;20209;-83
2021/12/27 04:29:22;;;;;;;0.30;0.10;;;-3.10;99.90;;;;;;5070843;28;20596;-84
2021/12/27 04:31:49;;;;;;;0.30;0.10;;;-3.10;99.90;;;;;;5070207;28;20197;-84
2021/12/27 04:34:16;;;;;;;1.00;1.00;;;-3.00;99.90;;;;;;5063991;28;20251;-83
2021/12/27 04:36:44;;;;;;;0.30;0.10;;;-3.00;99.90;;;;;;5070265;28;20221;-83
2021/12/27 04:39:11;;;;;;;0.30;0.20;;;-3.10;99.90;;;;;;5070492;28;20290;-84
2021/12/27 04:41:39;;;;;;;0.30;0.10;;;-3.10;99.90;;;;;;5070294;28;20194;-83
2021/12/27 04:44:06;;;;;;;0.30;0.10;;;-3.00;99.90;;;;;;5069484;28;20247;-83
2021/12/27 04:46:33;;;;;;;0.30;0.25;;;-3.10;99.90;;;;;;5070857;28;20666;-84
2021/12/27 04:49:00;;;;;;;0.30;0.20;;;-3.00;99.90;;;;;;5070124;28;20198;-83
2021/12/27 04:51:27;;;;;;;0.30;0.20;;;-3.00;99.90;;;;;;5069658;28;20640;-83
2021/12/27 04:53:56;;;;;;;0.30;0.10;;;-3.00;99.90;;;;;;5070175;28;20201;-83
2021/12/27 04:56:23;;;;;;;0.52;0.47;;;-2.90;99.90;;;;;;5069562;28;20741;-83
2021/12/27 04:58:50;;;;;;;0.30;0.10;;;-2.90;99.90;;;;;;5069637;28;20615;-84
2021/12/27 05:01:18;;;;;;;0.40;0.30;;;-2.90;99.90;;;;;;5068892;28;20205;-83
2021/12/27 05:03:45;;;;;;;1.10;1.10;;;-2.80;99.90;;;;;;5070009;28;20609;-84
2021/12/27 05:06:13;;;;;;;0.30;0.10;;;-2.90;99.90;;;;;;5069357;28;20205;-83
2021/12/27 05:08:40;;;;;;;0.30;0.10;;;-2.90;99.90;;;;;;5069711;28;20304;-83
2021/12/27 05:11:09;;;;;;;0.65;0.60;;;-2.90;99.90;;;;;;5068666;28;20208;-83
2021/12/27 05:13:36;;;;;;;0.75;0.75;;;-2.90;99.90;;;;;;5070073;28;20644;-83
2021/12/27 05:16:05;;;;;;;0.30;0.20;;;-2.80;99.90;;;;;;5068436;28;20282;-82
2021/12/27 05:18:32;;;;;;;0.30;0.10;;;-2.80;99.90;;;;;;5069027;28;20674;-84
2021/12/27 05:20:59;;;;;;;0.30;0.10;;;-2.90;99.90;;;;;;5068848;28;20274;-83
2021/12/27 05:23:26;;;;;;;0.30;0.10;;;-2.90;99.90;;;;;;5070337;28;20251;-82
2021/12/27 05:25:53;;;;;;;1.00;1.00;;;-2.90;99.90;;;;;;5068808;28;20206;-82
2021/12/27 05:28:21;;;;;;;0.30;0.28;;;-2.80;99.90;;;;;;5069493;28;20197;-82
2021/12/27 05:30:51;;;;;;;0.30;0.10;;;-2.80;99.90;;;;;;5069146;28;20201;-82
2021/12/27 05:33:19;;;;;;;0.50;0.43;;;-2.80;99.90;;;;;;5055006;28;20296;-81
2021/12/27 05:35:46;;;;;;;1.55;1.55;;;-2.80;99.90;;;;;;5068094;28;20242;-82
2021/12/27 05:38:13;;;;;;;0.40;0.30;;;-2.80;99.90;;;;;;5066630;28;20367;-81
2021/12/27 05:40:40;;;;;;;0.50;0.50;;;-2.90;99.90;;;;;;5065965;28;20656;-80
2021/12/27 05:43:08;;;;;;;0.30;0.10;;;-2.80;99.90;;;;;;5068662;28;20612;-81
2021/12/27 05:45:36;;;;;;;0.30;0.10;;;-2.90;99.90;;;;;;5072319;28;20480;-81
2021/12/27 05:48:04;;;;;;;2.90;0.82;;;-2.80;99.90;;;;;;5071186;28;20217;-80
2021/12/27 05:50:31;;;;;;;1.25;1.25;;;-2.90;99.90;;;;;;5080761;28;20197;-81
2021/12/27 05:52:58;;;;;;;0.30;0.10;;;-2.80;99.90;;;;;;5096559;28;20223;-83
2021/12/27 05:55:25;;;;;;;0.30;0.20;;;-2.80;99.90;;;;;;5092435;28;20228;-82
2021/12/27 05:57:52;;;;;;;0.30;0.10;;;-2.80;99.90;;;;;;5076768;28;20253;-82
2021/12/27 06:00:20;;;;;;;0.30;0.10;;;-2.80;99.90;;;;;;5072279;28;20205;-82
2021/12/27 06:02:51;;;;;;;0.85;0.85;;;-2.80;99.90;;;;;;5073653;28;20202;-84
2021/12/27 06:05:18;;;;;;;0.30;0.20;;;-2.80;99.90;;;;;;5080671;28;20292;-83
2021/12/27 06:07:45;;;;;;;0.30;0.10;;;-2.80;99.90;;;;;;5080534;28;20190;-84
2021/12/27 06:10:13;;;;;;;0.30;0.10;;;-2.80;99.90;;;;;;5065020;28;20198;-84
2021/12/27 06:12:40;;;;;;;0.30;0.10;;;-2.80;99.90;;;;;;5057087;28;20330;-83
2021/12/27 06:15:09;;;;;;;0.30;0.20;;;-2.80;99.90;;;;;;5064601;28;20202;-84
2021/12/27 06:17:37;;;;;;;0.30;0.20;;;-2.70;99.90;;;;;;5064871;28;20229;-84
2021/12/27 06:20:08;;;;;;;0.40;0.38;;;-2.80;99.90;;;;;;5066398;28;20193;-84
2021/12/27 06:22:38;;;;;;;0.30;0.10;;;-2.70;99.90;;;;;;5066188;28;20608;-84
2021/12/27 06:25:05;;;;;;;0.30;0.10;;;-2.70;99.90;;;;;;5071323;28;20227;-83
2021/12/27 06:27:33;;;;;;;0.30;0.10;;;-2.80;99.90;;;;;;5060991;28;20255;-83
2021/12/27 06:30:01;;;;;;;0.30;0.20;;;-2.80;99.90;;;;;;5069678;28;20200;-85
2021/12/27 06:32:28;;;;;;;0.30;0.20;;;-2.70;99.90;;;;;;5067143;28;20202;-83
2021/12/27 06:34:55;;;;;;;0.30;0.20;;;-2.70;99.90;;;;;;5066140;28;20251;-83
2021/12/27 06:37:24;;;;;;;0.30;0.10;;;-2.70;99.90;;;;;;5069401;28;20286;-82
2021/12/27 06:39:51;;;;;;;0.30;0.20;;;-2.70;99.90;;;;;;5075066;28;20199;-84
2021/12/27 06:42:18;;;;;;;0.30;0.10;;;-2.70;99.90;;;;;;5069810;28;20674;-83
2021/12/27 06:44:46;;;;;;;1.40;1.30;;;-2.70;99.90;;;;;;5070094;28;20315;-83
2021/12/27 06:47:13;;;;;;;0.30;0.10;;;-2.70;99.90;;;;;;5072174;28;20193;-83
2021/12/27 06:49:42;;;;;;;0.30;0.10;;;-2.60;99.90;;;;;;5056790;28;20248;-83
2021/12/27 06:52:11;;;;;;;0.30;0.20;;;-2.60;99.90;;;;;;5064213;28;20293;-83
2021/12/27 06:54:40;;;;;;;1.35;1.30;;;-2.60;99.90;;;;;;5075696;28;20201;-84
2021/12/27 06:57:08;;;;;;;0.30;0.10;;;-2.60;99.90;;;;;;5063599;28;20769;-84
2021/12/27 06:59:35;;;;;;;0.30;0.10;;;-2.50;99.90;;;;;;5064154;28;20306;-84
2021/12/27 07:02:02;;;;;;;0.65;0.65;;;-2.50;99.90;;;;;;5071423;28;20259;-84
2021/12/27 07:04:31;;;;;;;2.15;2.00;;;-2.40;99.90;;;;;;5057471;28;20198;-84
2021/12/27 07:06:58;;;;;;;0.40;0.20;;;-2.50;99.90;;;;;;5065701;28;20603;-84
2021/12/27 07:09:25;;;;;;;0.30;0.20;;;-2.40;99.90;;;;;;5066321;28;20198;-83
2021/12/27 07:11:53;;;;;;;0.30;0.20;;;-2.50;99.90;;;;;;5069826;28;20206;-84
2021/12/27 07:14:20;;;;;;;0.30;0.20;;;-2.50;99.90;;;;;;5063154;28;20239;-83
2021/12/27 07:16:47;;;;;;;3.10;1.75;;;-2.50;99.90;;;;;;5058010;28;20727;-92
2021/12/27 07:19:14;;;;;;;0.30;0.20;;;-2.40;99.90;;;;;;5061971;28;20194;-83
2021/12/27 07:21:41;;;;;;;0.30;0.10;;;-2.30;99.90;;;;;;5050614;28;20190;-85
2021/12/27 07:24:08;;;;;;;0.40;0.32;;;-2.30;99.90;;;;;;5053089;28;20198;-85
2021/12/27 07:26:35;;;;;;;0.40;0.35;;;-2.30;99.90;;;;;;5061388;28;20202;-84
2021/12/27 07:29:04;;;;;;;0.95;0.95;;;-2.30;99.90;;;;;;5070051;28;20652;-84
2021/12/27 07:31:31;;;;;;;0.30;0.20;;;-2.30;99.90;;;;;;5084855;28;20224;-84
2021/12/27 07:34:00;;;;;;;0.30;0.20;;;-2.30;99.90;;;;;;5079967;28;20197;-84
2021/12/27 07:36:27;;;;;;;0.40;0.40;;;-2.30;99.90;;;;;;5082065;28;20244;-84
2021/12/27 07:38:54;;;;;;;0.30;0.20;;;-2.30;99.90;;;;;;5075627;28;20259;-85
2021/12/27 07:41:21;;;;;;;0.30;0.10;;;-2.10;99.90;;;;;;5071155;28;20193;-83
2021/12/27 07:43:48;;;;;;;0.30;0.10;;;-2.20;99.90;;;;;;5063667;28;20247;-83
2021/12/27 07:46:16;;;;;;;0.30;0.20;;;-2.20;99.90;;;;;;5068837;28;20728;-83
2021/12/27 07:48:43;;;;;;;2.15;2.05;;;-2.30;99.90;;;;;;5069390;28;20190;-83
2021/12/27 07:51:10;;;;;;;0.30;0.20;;;-2.30;99.90;;;;;;5070518;28;20198;-83
2021/12/27 07:53:37;;;;;;;0.30;0.10;;;-2.20;99.90;;;;;;5069399;28;20221;-83
2021/12/27 07:56:06;;;;;;;0.30;0.20;;;-2.00;99.90;;;;;;5065964;28;20622;-83
2021/12/27 07:58:33;;;;;;;0.30;0.10;;;-2.10;99.90;;;;;;5060302;28;20372;-83
2021/12/27 08:01:00;;;;;;;0.30;0.20;;;-2.10;99.90;;;;;;5061213;28;20209;-82
2021/12/27 08:03:29;;;;;;;1.48;1.38;;;-2.20;99.90;;;;;;5062082;28;20270;-85
2021/12/27 08:05:56;;;;;;;0.30;0.10;;;-2.20;99.90;;;;;;5066637;28;20230;-86
2021/12/27 08:08:23;;;;;;;0.63;0.63;;;-2.20;99.90;;;;;;5061407;28;20206;-85
2021/12/27 08:10:50;;;;;;;0.30;0.10;;;-2.10;99.90;;;;;;5067742;28;20202;-85
2021/12/27 08:13:17;;;;;;;0.30;0.10;;;-2.20;99.90;;;;;;5059666;28;20816;-87
2021/12/27 08:15:44;;;;;;;0.30;0.10;;;-2.20;99.90;;;;;;5059458;28;20256;-85
2021/12/27 08:18:11;;;;;;;0.30;0.20;;;-2.10;99.90;;;;;;5055574;28;20259;-85
2021/12/27 08:20:43;;;;;;;0.30;0.20;;;-2.10;99.90;;;;;;5061706;28;20194;-88
2021/12/27 08:23:10;;;;;;;0.30;0.10;;;-2.00;99.90;;;;;;5056625;28;20617;-85
2021/12/27 08:25:38;;;;;;;0.93;0.93;;;-2.00;99.90;;;;;;5057494;28;20259;-87
2021/12/27 08:28:07;;;;;;;0.30;0.10;;;-2.00;99.90;;;;;;5057540;28;20612;-87
2021/12/27 08:30:35;;;;;;;0.30;0.20;;;-2.00;99.90;;;;;;5055277;28;20897;-84
2021/12/27 08:33:02;;;;;;;0.63;0.63;;;-1.90;99.90;;;;;;5054477;28;20604;-84
2021/12/27 08:35:29;;;;;;;0.30;0.10;;;-1.90;99.90;;;;;;5051360;28;20194;-84
2021/12/27 08:37:57;;;;;;;0.30;0.10;;;-1.90;99.90;;;;;;5050089;28;20303;-86
2021/12/27 08:40:24;;;;;;;0.30;0.30;;;-2.00;99.90;;;;;;5060166;28;20222;-85
2021/12/27 08:42:51;;;;;;;0.30;0.10;;;-2.00;99.90;;;;;;5063466;28;20210;-84
2021/12/27 08:45:18;;;;;;;0.30;0.20;;;-2.00;99.90;;;;;;5060362;28;20657;-83
2021/12/27 08:47:45;;;;;;;0.30;0.10;;;-2.00;99.90;;;;;;5054497;28;20610;-85
2021/12/27 08:50:13;;;;;;;1.13;1.05;;;-2.00;99.90;;;;;;5059624;28;20243;-86
2021/12/27 08:52:41;;;;;;;0.30;0.10;;;-2.00;99.90;;;;;;5060477;28;20198;-86
2021/12/27 08:55:13;;;;;;;0.30;0.10;;;-1.80;99.90;;;;;;5052685;28;20547;-86
2021/12/27 08:57:41;;;;;;;0.30;0.10;;;-1.80;99.90;;;;;;5059913;28;20222;-86
2021/12/27 09:00:11;;;;;;;0.40;0.30;;;-1.70;99.90;;;;;;5069147;28;20201;-87
2021/12/27 09:02:38;;;;;;;0.30;0.10;;;-1.80;99.90;;;;;;5061400;28;20195;-85
2021/12/27 09:05:06;;;;;;;1.10;1.00;;;-1.80;99.90;;;;;;5069066;28;20198;-85
2021/12/27 09:07:33;;;;;;;0.30;0.15;;;-1.80;99.90;;;;;;5070342;28;20232;-87
2021/12/27 09:10:00;;;;;;;0.30;0.10;;;-1.70;99.90;;;;;;5076878;28;20241;-84
2021/12/27 09:12:28;;;;;;;0.30;0.20;;;-1.70;99.90;;;;;;5097152;28;20227;-85
2021/12/27 09:14:55;;;;;;;0.63;0.30;;;-1.80;99.90;;;;;;5084643;28;21463;-82
2021/12/27 09:17:22;;;;;;;0.30;0.10;;;-1.90;99.90;;;;;;5061018;28;20295;-84
2021/12/27 09:19:50;;;;;;;0.30;0.10;;;-2.00;99.90;;;;;;5066860;28;20251;-88
2021/12/27 09:22:18;;;;;;;0.30;0.10;;;-1.90;99.90;;;;;;5077492;28;20197;-85
2021/12/27 09:24:46;;;;;;;0.30;0.10;;;-1.90;99.90;;;;;;5068665;28;20212;-87
2021/12/27 09:27:13;;;;;;;0.30;0.10;;;-1.80;99.90;;;;;;5062979;28;20208;-86
2021/12/27 09:29:43;;;;;;;1.38;1.27;;;-1.80;99.90;;;;;;5061502;28;20256;-88
2021/12/27 09:32:10;;;;;;;1.63;0.73;;;-1.60;99.90;;;;;;5057775;28;20712;-88
2021/12/27 09:34:37;;;;;;;0.30;0.10;;;-1.60;99.90;;;;;;5056722;28;20291;-86
2021/12/27 09:37:05;;;;;;;0.50;0.50;;;-1.60;99.90;;;;;;5067437;28;20259;-85
2021/12/27 09:39:32;;;;;;;0.30;0.10;;;-1.50;99.90;;;;;;5067999;28;20968;-86
2021/12/27 09:41:59;;;;;;;0.30;0.28;;;-1.40;99.90;;;;;;5061370;28;20202;-83
2021/12/27 09:44:26;;;;;;;0.35;0.25;;;-1.40;99.90;;;;;;5059737;28;20254;-84
2021/12/27 09:46:56;;;;;;;0.30;0.10;;;-1.40;99.90;;;;;;5054304;28;20210;-86
2021/12/27 09:49:29;;;;;;;0.30;0.10;;;-1.30;99.90;;;;;;5059192;28;20632;-87
2021/12/27 09:51:57;;;;;;;0.30;0.10;;;-1.30;99.90;;;;;;5069705;28;20205;-86
2021/12/27 09:54:24;;;;;;;0.30;0.10;;;-1.30;99.90;;;;;;5061775;28;20588;-85
2021/12/27 09:56:52;;;;;;;0.43;0.43;;;-1.40;99.90;;;;;;5069053;28;20724;-84
2021/12/27 09:59:20;;;;;;;1.13;1.05;;;-1.40;99.90;;;;;;5069557;28;20412;-86
2021/12/27 10:01:47;;;;;;;0.30;0.10;;;-1.30;99.90;;;;;;5068305;28;20194;-84
2021/12/27 10:04:15;;;;;;;0.30;0.10;;;-1.20;99.90;;;;;;5069080;28;20706;-85
2021/12/27 10:06:43;;;;;;;0.30;0.10;;;-1.20;99.90;;;;;;5069080;28;20205;-84
2021/12/27 10:09:10;;;;;;;0.30;0.15;;;-1.10;99.90;;;;;;5064074;28;20225;-87
2021/12/27 10:11:39;;;;;;;0.88;0.85;;;-1.10;99.90;;;;;;5053062;28;20199;-89
2021/12/27 10:14:09;;;;;;;0.30;0.10;;;-0.90;99.90;;;;;;5053442;28;20659;-84
2021/12/27 10:16:39;;;;;;;0.30;0.10;;;-1.10;99.90;;;;;;5055047;28;20295;-85
2021/12/27 10:19:08;;;;;;;0.30;0.10;;;-0.90;99.90;;;;;;5057580;28;20264;-84
2021/12/27 10:21:41;;;;;;;0.30;0.20;;;-0.80;99.90;;;;;;5049084;28;20717;-85
2021/12/27 10:24:14;;;;;;;0.30;0.10;;;-1.00;99.90;;;;;;5067442;28;20227;-85
2021/12/27 10:26:41;;;;;;;0.30;0.10;;;-0.90;99.90;;;;;;5053524;28;20787;-86
2021/12/27 10:29:15;;;;;;;0.80;0.80;;;-1.00;99.90;;;;;;5067953;28;20993;-85
2021/12/27 10:31:55;;;;;;;0.30;0.30;;;-1.00;99.90;;;;;;5073564;28;20198;-86
2021/12/27 10:34:23;;;;;;;1.42;1.33;;;-1.00;99.90;;;;;;5066040;28;20266;-86
2021/12/27 10:37:13;;;;;;;1.58;1.58;;;-0.90;99.90;;;;;;5070858;28;20226;-85
2021/12/27 10:39:49;;;;;;;1.77;1.23;;;-0.80;99.90;;;;;;5064674;28;20288;-85
2021/12/27 10:42:20;;;;;;;0.30;0.10;;;-0.80;99.90;;;;;;5073808;28;20675;-88
2021/12/27 10:44:48;;;;;;;3.13;1.05;;;-0.80;99.90;;;;;;5086428;28;20191;-85
2021/12/27 10:47:27;;;;;;;1.67;0.77;;;-0.80;99.90;;;;;;5085648;28;20205;-85
2021/12/27 10:49:55;;;;;;;1.50;1.50;;;-0.90;99.90;;;;;;5072670;28;20552;-85
2021/12/27 10:52:44;;;;;;;0.30;0.20;;;-0.90;99.90;;;;;;5062420;28;20554;-85
2021/12/27 10:55:12;;;;;;;1.40;1.40;;;-0.90;99.90;;;;;;5068716;28;20595;-86
2021/12/27 10:57:39;;;;;;;0.30;0.10;;;-0.80;99.90;;;;;;5059367;28;20259;-85
2021/12/27 11:00:22;;;;;;;0.30;0.10;;;-0.70;99.90;;;;;;5065925;28;20217;-86
2021/12/27 11:02:49;;;;;;;0.30;0.10;;;-0.70;99.90;;;;;;5059335;28;20197;-86
2021/12/27 11:05:18;;;;;;;3.05;2.85;;;-0.70;99.90;;;;;;5062729;28;20252;-87
2021/12/27 11:07:47;;;;;;;0.30;0.10;;;-0.60;99.90;;;;;;5065235;28;20210;-85
2021/12/27 11:10:14;;;;;;;1.25;0.75;;;-0.50;99.90;;;;;;5069107;28;20268;-84
2021/12/27 11:12:41;;;;;;;1.80;1.70;;;-0.40;99.90;;;;;;5068625;28;20276;-85
2021/12/27 11:15:11;;;;;;;0.40;0.30;;;-0.50;99.90;;;;;;5069625;28;20261;-85
2021/12/27 11:17:39;;;;;;;0.30;0.10;;;-0.60;99.90;;;;;;5071475;28;20230;-84
2021/12/27 11:20:09;;;;;;;0.30;0.20;;;-0.70;99.90;;;;;;5062663;28;20190;-85
2021/12/27 11:22:38;;;;;;;1.10;1.10;;;-0.70;99.90;;;;;;5081362;28;20260;-84
2021/12/27 11:25:19;;;;;;;1.05;0.95;;;-0.70;99.90;;;;;;5071625;28;20269;-84
2021/12/27 11:27:46;;;;;;;0.30;0.20;;;-0.90;99.90;;;;;;5057759;28;20616;-85
2021/12/27 11:30:16;;;;;;;0.30;0.20;;;-0.70;99.90;;;;;;5059960;28;20708;-85
2021/12/27 11:33:01;;;;;;;0.30;0.10;;;-0.60;99.90;;;;;;5060819;28;20605;-84
2021/12/27 11:35:32;;;;;;;0.30;0.22;;;-0.60;99.90;;;;;;5057122;28;20333;-84
2021/12/27 11:38:01;;;;;;;0.30;0.10;;;-0.50;99.90;;;;;;5071215;28;20253;-83
2021/12/27 11:40:43;;;;;;;0.30;0.20;;;-0.40;99.90;;;;;;5063007;28;20685;-83
2021/12/27 11:43:11;;;;;;;0.40;0.28;;;-0.60;99.90;;;;;;5066818;28;20202;-84
2021/12/27 11:45:46;;;;;;;0.40;0.40;;;-0.70;99.90;;;;;;5069388;28;20196;-84
2021/12/27 11:48:15;;;;;;;0.30;0.10;;;-0.80;99.90;;;;;;5071172;28;20214;-83
2021/12/27 11:51:06;;;;;;;0.30;0.10;;;-0.80;99.90;;;;;;5052373;28;20265;-83
2021/12/27 11:53:35;;;;;;;0.30;0.10;;;-0.90;99.90;;;;;;5075090;28;20210;-84
2021/12/27 11:56:09;;;;;;;0.40;0.35;;;-0.90;99.90;;;;;;5067471;28;20202;-84
2021/12/27 11:58:38;;;;;;;0.30;0.10;;;-0.90;99.90;;;;;;5064327;28;20225;-84
2021/12/27 12:01:07;;;;;;;0.30;0.10;;;-0.90;99.90;;;;;;5054596;28;20238;-84
2021/12/27 12:03:40;;;;;;;0.30;0.17;;;-0.90;99.90;;;;;;5054156;28;20208;-84
2021/12/27 12:06:07;;;;;;;0.30;0.20;;;-0.90;99.90;;;;;;5055145;28;20710;-83
2021/12/27 12:08:52;;;;;;;0.30;0.10;;;-0.90;99.90;;;;;;5056157;28;20212;-85
2021/12/27 12:11:32;;;;;;;0.30;0.10;;;-0.90;99.90;;;;;;5054451;28;20272;-83
2021/12/27 12:14:19;;;;;;;0.30;0.10;;;-0.80;99.90;;;;;;5055423;28;20226;-84
2021/12/27 12:16:49;;;;;;;0.30;0.10;;;-0.80;99.90;;;;;;5060814;28;20196;-84
2021/12/27 12:19:16;;;;;;;0.30;0.10;;;-0.70;99.90;;;;;;5073795;28;20270;-85
2021/12/27 12:21:44;;;;;;;0.30;0.10;;;-0.70;99.90;;;;;;5083163;28;20206;-87
2021/12/27 12:24:20;;;;;;;0.30;0.10;;;-0.70;99.90;;;;;;5084433;28;20199;-84
2021/12/27 12:26:54;;;;;;;2.28;1.10;;;-0.70;99.90;;;;;;5074050;28;20245;-86
2021/12/27 12:29:22;;;;;;;0.30;0.10;;;-0.50;99.90;;;;;;5070174;28;20327;-83
2021/12/27 12:31:56;;;;;;;0.30;0.10;;;-0.40;99.90;;;;;;5068604;28;20244;-85
2021/12/27 12:34:23;;;;;;;0.30;0.20;;;-0.40;99.90;;;;;;5066327;28;20197;-84
2021/12/27 12:36:52;;;;;;;0.30;0.10;;;-0.60;99.90;;;;;;5064399;28;20199;-84
2021/12/27 12:39:21;;;;;;;1.27;1.17;;;-0.50;99.90;;;;;;5069323;28;20234;-84
2021/12/27 12:41:49;;;;;;;0.30;0.20;;;-0.50;99.90;;;;;;5069518;28;20238;-84
2021/12/27 12:44:18;;;;;;;0.95;0.95;;;-0.60;99.90;;;;;;5069807;28;20194;-83
2021/12/27 12:46:49;;;;;;;0.30;0.20;;;-0.60;99.90;;;;;;5065263;28;20194;-84
2021/12/27 12:49:19;;;;;;;0.30;0.20;;;-0.70;99.90;;;;;;5067468;28;20204;-85
2021/12/27 12:51:49;;;;;;;2.67;1.30;;;-0.60;99.90;;;;;;5065953;28;20202;-86
2021/12/27 12:54:29;;;;;;;0.30;0.20;;;-0.50;99.90;;;;;;5064738;28;20251;-86
2021/12/27 12:56:58;;;;;;;0.30;0.10;;;-0.50;99.90;;;;;;5057905;28;20194;-86
2021/12/27 12:59:28;;;;;;;0.30;0.10;;;-0.50;99.90;;;;;;5050747;28;20241;-88